Pagrindinis puslapis
METAR-TAF:

METAR-TAF

Oro uostai :

Le Tontutos tarptautinis oro uostas

Numėja La Tontouta, Naujoji Kaledonija

platuma: 22-01S, ilguma: 166-13E, Aukštis: 16 m

Dabartinis oras

Ataskaita buvo paskelbta 19 minutes, ne 06:30 UTC
Vėjas 14 kt iš Pietų/Pietryčių
Temperatūra 26°C
Drėgmė 58%
Slėgis 1010 hPa
Matomumas 10 km arba daugiau
Mažai debesys ne aukštis 5400 ft
Apsiniaukę ne aukštis 6600 ft

METAR: NWWW 120630Z AUTO 15014KT 9999 FEW054 OVC066 26/17 Q1010 BECMG VRB02KT

Laikas: 17:49 (06:49 UTC)

Prognozė

Ataskaita buvo paskelbta 1 valandą ir 49 minutes, ne 05:00 UTC
Prognozė galioja nuo 12 metu 06 UTC su 13 metu 06 UTC
Vėjas 12 kt iš Pietryčių
Matomumas 10 km arba daugiau
Su prošvaistėmis ne aukštis 4500 ft
Tapsmas
nuo 12 metu 07 UTC su 12 metu 09 UTC
Vėjas 2 kt nuo kintamojo kryptimis
Tapsmas
nuo 12 metu 23 UTC su 13 metu 01 UTC
Vėjas 12 kt iš Pietų

TAF: NWWW 120500Z 1206/1306 14012KT 9999 BKN045 BECMG 1207/1209 VRB02KT BECMG 1223/1301 18012KT

Orai ataskaitas ir orų prognozės (METAR, TAF).

turimą stotys yra geltonos ir raudonos taškus žemėlapyje.

Perkelti pele per norėdami pamatyti stoties vardą.

Tada spustelėkite, norėdami matyti oro stebėjimo ir prognozės.

Norėdami pakeisti žemėlapį: spustelėkite ant žalios mygtukų su juodo kryžiaus žemyn,; žalią mygtuką su brūkšneliu, jei norite nutolinti; arba žalių rodyklių gretimoms žemėlapius.


METAR-TAF: